sensor_id;sensor_type;location;lat;lon;timestamp;temperature;humidity
53286;DHT22;39171;45.550;12.074;2023-11-19T00:05:32;11.50;78.10
53286;DHT22;39171;45.550;12.074;2023-11-19T00:11:33;11.50;78.00
53286;DHT22;39171;45.550;12.074;2023-11-19T00:17:35;11.50;78.00
53286;DHT22;39171;45.550;12.074;2023-11-19T00:23:36;11.50;78.00
53286;DHT22;39171;45.550;12.074;2023-11-19T00:29:38;11.50;78.00
53286;DHT22;39171;45.550;12.074;2023-11-19T00:35:39;11.50;78.00
53286;DHT22;39171;45.550;12.074;2023-11-19T00:41:41;11.40;77.90
53286;DHT22;39171;45.550;12.074;2023-11-19T00:47:42;11.40;78.00
53286;DHT22;39171;45.550;12.074;2023-11-19T00:53:44;11.40;78.00
53286;DHT22;39171;45.550;12.074;2023-11-19T00:59:45;11.40;78.00
53286;DHT22;39171;45.550;12.074;2023-11-19T01:05:48;11.50;78.10
53286;DHT22;39171;45.550;12.074;2023-11-19T01:11:50;11.40;78.20
53286;DHT22;39171;45.550;12.074;2023-11-19T01:17:51;11.40;78.20
53286;DHT22;39171;45.550;12.074;2023-11-19T01:23:53;11.40;78.40
53286;DHT22;39171;45.550;12.074;2023-11-19T01:29:54;11.40;78.30
53286;DHT22;39171;45.550;12.074;2023-11-19T01:35:57;11.40;78.30
53286;DHT22;39171;45.550;12.074;2023-11-19T01:41:59;11.40;78.20
53286;DHT22;39171;45.550;12.074;2023-11-19T01:48:02;11.40;78.20
53286;DHT22;39171;45.550;12.074;2023-11-19T01:54:08;11.40;78.20
53286;DHT22;39171;45.550;12.074;2023-11-19T02:00:10;11.40;78.10
53286;DHT22;39171;45.550;12.074;2023-11-19T02:06:15;11.40;78.20
53286;DHT22;39171;45.550;12.074;2023-11-19T02:12:16;11.40;78.00
53286;DHT22;39171;45.550;12.074;2023-11-19T02:18:23;11.40;78.00
53286;DHT22;39171;45.550;12.074;2023-11-19T02:24:27;11.40;78.00
53286;DHT22;39171;45.550;12.074;2023-11-19T02:30:31;11.40;78.00
53286;DHT22;39171;45.550;12.074;2023-11-19T02:36:33;11.40;77.90
53286;DHT22;39171;45.550;12.074;2023-11-19T02:42:34;11.30;78.00
53286;DHT22;39171;45.550;12.074;2023-11-19T02:48:37;11.30;78.00
53286;DHT22;39171;45.550;12.074;2023-11-19T02:54:38;11.40;78.00
53286;DHT22;39171;45.550;12.074;2023-11-19T03:00:40;11.40;78.00
53286;DHT22;39171;45.550;12.074;2023-11-19T03:06:49;11.30;78.00
53286;DHT22;39171;45.550;12.074;2023-11-19T03:12:51;11.30;77.90
53286;DHT22;39171;45.550;12.074;2023-11-19T03:18:53;11.30;78.10
53286;DHT22;39171;45.550;12.074;2023-11-19T03:24:57;11.30;78.00
53286;DHT22;39171;45.550;12.074;2023-11-19T03:30:59;11.30;78.10
53286;DHT22;39171;45.550;12.074;2023-11-19T03:37:04;11.30;78.00
53286;DHT22;39171;45.550;12.074;2023-11-19T03:43:05;11.30;78.00
53286;DHT22;39171;45.550;12.074;2023-11-19T03:49:07;11.30;78.00
53286;DHT22;39171;45.550;12.074;2023-11-19T03:55:08;11.30;78.00
53286;DHT22;39171;45.550;12.074;2023-11-19T04:01:13;11.30;78.00
53286;DHT22;39171;45.550;12.074;2023-11-19T04:07:15;11.20;78.00
53286;DHT22;39171;45.550;12.074;2023-11-19T04:13:16;11.20;78.00
53286;DHT22;39171;45.550;12.074;2023-11-19T04:19:18;11.20;78.00
53286;DHT22;39171;45.550;12.074;2023-11-19T04:25:20;11.20;78.10
53286;DHT22;39171;45.550;12.074;2023-11-19T04:31:21;11.20;78.10
53286;DHT22;39171;45.550;12.074;2023-11-19T04:37:23;11.20;78.20
53286;DHT22;39171;45.550;12.074;2023-11-19T04:43:24;11.20;78.20
53286;DHT22;39171;45.550;12.074;2023-11-19T04:49:26;11.20;78.30
53286;DHT22;39171;45.550;12.074;2023-11-19T04:55:28;11.20;78.10
53286;DHT22;39171;45.550;12.074;2023-11-19T05:01:29;11.20;78.20
53286;DHT22;39171;45.550;12.074;2023-11-19T05:07:31;11.20;78.20
53286;DHT22;39171;45.550;12.074;2023-11-19T05:13:32;11.20;78.20
53286;DHT22;39171;45.550;12.074;2023-11-19T05:19:34;11.20;78.20
53286;DHT22;39171;45.550;12.074;2023-11-19T05:25:36;11.20;78.20
53286;DHT22;39171;45.550;12.074;2023-11-19T05:31:38;11.10;78.20
53286;DHT22;39171;45.550;12.074;2023-11-19T05:37:39;11.10;78.10
53286;DHT22;39171;45.550;12.074;2023-11-19T05:43:41;11.10;78.20
53286;DHT22;39171;45.550;12.074;2023-11-19T05:49:43;11.10;78.10
53286;DHT22;39171;45.550;12.074;2023-11-19T05:55:45;11.10;78.10
53286;DHT22;39171;45.550;12.074;2023-11-19T06:02:06;11.10;78.10
53286;DHT22;39171;45.550;12.074;2023-11-19T06:08:08;11.10;78.10
53286;DHT22;39171;45.550;12.074;2023-11-19T06:14:09;11.10;78.30
53286;DHT22;39171;45.550;12.074;2023-11-19T06:20:11;11.10;78.10
53286;DHT22;39171;45.550;12.074;2023-11-19T06:26:13;11.10;78.50
53286;DHT22;39171;45.550;12.074;2023-11-19T06:32:15;11.10;78.90
53286;DHT22;39171;45.550;12.074;2023-11-19T06:38:17;11.10;78.60
53286;DHT22;39171;45.550;12.074;2023-11-19T06:44:18;11.10;78.40
53286;DHT22;39171;45.550;12.074;2023-11-19T06:50:20;11.10;78.20
53286;DHT22;39171;45.550;12.074;2023-11-19T06:56:24;11.00;78.20
53286;DHT22;39171;45.550;12.074;2023-11-19T07:02:26;11.00;78.20
53286;DHT22;39171;45.550;12.074;2023-11-19T07:08:28;11.00;78.20
53286;DHT22;39171;45.550;12.074;2023-11-19T07:14:29;11.00;78.10
53286;DHT22;39171;45.550;12.074;2023-11-19T07:20:30;11.00;78.20
53286;DHT22;39171;45.550;12.074;2023-11-19T07:26:34;11.00;78.20
53286;DHT22;39171;45.550;12.074;2023-11-19T07:32:35;11.00;78.50
53286;DHT22;39171;45.550;12.074;2023-11-19T07:38:37;11.00;78.30
53286;DHT22;39171;45.550;12.074;2023-11-19T07:44:39;11.00;78.30
53286;DHT22;39171;45.550;12.074;2023-11-19T07:50:41;11.00;78.40
53286;DHT22;39171;45.550;12.074;2023-11-19T07:56:42;11.00;78.40
53286;DHT22;39171;45.550;12.074;2023-11-19T08:02:44;11.00;78.30
53286;DHT22;39171;45.550;12.074;2023-11-19T08:08:49;11.00;78.40
53286;DHT22;39171;45.550;12.074;2023-11-19T08:14:50;11.00;78.30
53286;DHT22;39171;45.550;12.074;2023-11-19T08:20:52;11.00;78.40
53286;DHT22;39171;45.550;12.074;2023-11-19T08:26:54;11.00;78.30
53286;DHT22;39171;45.550;12.074;2023-11-19T08:32:56;11.00;78.30
53286;DHT22;39171;45.550;12.074;2023-11-19T08:38:58;11.00;78.20
53286;DHT22;39171;45.550;12.074;2023-11-19T08:44:59;11.00;78.10
53286;DHT22;39171;45.550;12.074;2023-11-19T08:51:01;11.10;78.20
53286;DHT22;39171;45.550;12.074;2023-11-19T08:57:03;11.10;78.20
53286;DHT22;39171;45.550;12.074;2023-11-19T09:03:05;11.10;78.50
53286;DHT22;39171;45.550;12.074;2023-11-19T09:09:06;11.20;78.60
53286;DHT22;39171;45.550;12.074;2023-11-19T09:15:08;11.20;78.60
53286;DHT22;39171;45.550;12.074;2023-11-19T09:21:14;11.20;78.50
53286;DHT22;39171;45.550;12.074;2023-11-19T09:27:16;11.20;78.80
53286;DHT22;39171;45.550;12.074;2023-11-19T09:33:17;11.20;78.80
53286;DHT22;39171;45.550;12.074;2023-11-19T09:39:21;11.20;78.70
53286;DHT22;39171;45.550;12.074;2023-11-19T09:45:27;11.20;78.60
53286;DHT22;39171;45.550;12.074;2023-11-19T09:51:29;11.20;78.50
53286;DHT22;39171;45.550;12.074;2023-11-19T09:57:32;11.20;78.50
53286;DHT22;39171;45.550;12.074;2023-11-19T10:03:35;11.30;78.50
53286;DHT22;39171;45.550;12.074;2023-11-19T10:09:41;11.30;78.50
53286;DHT22;39171;45.550;12.074;2023-11-19T10:15:43;11.30;78.20
53286;DHT22;39171;45.550;12.074;2023-11-19T10:21:46;11.30;78.30
53286;DHT22;39171;45.550;12.074;2023-11-19T10:27:48;11.30;78.30
53286;DHT22;39171;45.550;12.074;2023-11-19T10:33:49;11.30;78.00
53286;DHT22;39171;45.550;12.074;2023-11-19T10:39:55;11.40;78.30
53286;DHT22;39171;45.550;12.074;2023-11-19T10:46:13;11.40;78.10
53286;DHT22;39171;45.550;12.074;2023-11-19T10:52:18;11.40;77.80
53286;DHT22;39171;45.550;12.074;2023-11-19T10:58:22;11.40;77.60
53286;DHT22;39171;45.550;12.074;2023-11-19T11:04:24;11.40;77.50
53286;DHT22;39171;45.550;12.074;2023-11-19T11:10:28;11.40;77.60
53286;DHT22;39171;45.550;12.074;2023-11-19T11:16:37;11.40;77.50
53286;DHT22;39171;45.550;12.074;2023-11-19T11:23:05;11.40;77.20
53286;DHT22;39171;45.550;12.074;2023-11-19T11:29:24;11.40;77.30
53286;DHT22;39171;45.550;12.074;2023-11-19T11:41:34;11.40;77.10
53286;DHT22;39171;45.550;12.074;2023-11-19T11:53:58;11.40;76.80
53286;DHT22;39171;45.550;12.074;2023-11-19T12:00:02;11.40;76.70
53286;DHT22;39171;45.550;12.074;2023-11-19T12:06:10;11.40;76.60
53286;DHT22;39171;45.550;12.074;2023-11-19T12:18:19;11.40;76.50
53286;DHT22;39171;45.550;12.074;2023-11-19T12:24:21;11.40;76.40
53286;DHT22;39171;45.550;12.074;2023-11-19T12:30:24;11.50;76.10
53286;DHT22;39171;45.550;12.074;2023-11-19T12:36:26;11.50;76.00
53286;DHT22;39171;45.550;12.074;2023-11-19T12:42:37;11.50;76.00
53286;DHT22;39171;45.550;12.074;2023-11-19T12:48:41;11.50;75.80
53286;DHT22;39171;45.550;12.074;2023-11-19T12:54:43;11.50;75.70
53286;DHT22;39171;45.550;12.074;2023-11-19T13:00:44;11.50;75.30
53286;DHT22;39171;45.550;12.074;2023-11-19T13:06:46;11.50;75.00
53286;DHT22;39171;45.550;12.074;2023-11-19T13:13:05;11.50;74.70
53286;DHT22;39171;45.550;12.074;2023-11-19T13:19:07;11.50;74.70
53286;DHT22;39171;45.550;12.074;2023-11-19T13:25:10;11.50;74.70
53286;DHT22;39171;45.550;12.074;2023-11-19T13:31:12;11.50;74.70
53286;DHT22;39171;45.550;12.074;2023-11-19T13:37:13;11.50;74.60
53286;DHT22;39171;45.550;12.074;2023-11-19T13:43:14;11.50;74.50
53286;DHT22;39171;45.550;12.074;2023-11-19T13:49:16;11.50;74.50
53286;DHT22;39171;45.550;12.074;2023-11-19T13:55:18;11.50;74.40
53286;DHT22;39171;45.550;12.074;2023-11-19T14:01:19;11.50;74.40
53286;DHT22;39171;45.550;12.074;2023-11-19T14:07:21;11.50;74.30
53286;DHT22;39171;45.550;12.074;2023-11-19T14:13:23;11.50;74.20
53286;DHT22;39171;45.550;12.074;2023-11-19T14:19:24;11.50;74.10
53286;DHT22;39171;45.550;12.074;2023-11-19T14:25:26;11.50;74.10
53286;DHT22;39171;45.550;12.074;2023-11-19T14:31:28;11.50;74.00
53286;DHT22;39171;45.550;12.074;2023-11-19T14:37:30;11.50;74.00
53286;DHT22;39171;45.550;12.074;2023-11-19T14:43:33;11.50;74.00
53286;DHT22;39171;45.550;12.074;2023-11-19T14:49:35;11.50;74.00
53286;DHT22;39171;45.550;12.074;2023-11-19T14:55:38;11.50;74.00
53286;DHT22;39171;45.550;12.074;2023-11-19T15:01:39;11.50;73.90
53286;DHT22;39171;45.550;12.074;2023-11-19T15:07:41;11.50;73.90
53286;DHT22;39171;45.550;12.074;2023-11-19T15:13:43;11.50;73.90
53286;DHT22;39171;45.550;12.074;2023-11-19T15:19:44;11.50;73.90
53286;DHT22;39171;45.550;12.074;2023-11-19T15:25:47;11.60;73.90
53286;DHT22;39171;45.550;12.074;2023-11-19T15:31:49;11.60;74.00
53286;DHT22;39171;45.550;12.074;2023-11-19T15:37:51;11.60;73.90
53286;DHT22;39171;45.550;12.074;2023-11-19T15:43:52;11.60;73.90
53286;DHT22;39171;45.550;12.074;2023-11-19T15:49:54;11.70;74.00
53286;DHT22;39171;45.550;12.074;2023-11-19T15:55:55;11.70;74.00
53286;DHT22;39171;45.550;12.074;2023-11-19T16:01:57;11.70;74.10
53286;DHT22;39171;45.550;12.074;2023-11-19T16:07:58;11.70;74.10
53286;DHT22;39171;45.550;12.074;2023-11-19T16:14:00;11.70;74.30
53286;DHT22;39171;45.550;12.074;2023-11-19T16:20:05;11.70;74.30
53286;DHT22;39171;45.550;12.074;2023-11-19T16:26:08;11.70;74.50
53286;DHT22;39171;45.550;12.074;2023-11-19T16:32:14;11.70;74.60
53286;DHT22;39171;45.550;12.074;2023-11-19T16:38:15;11.70;74.80
53286;DHT22;39171;45.550;12.074;2023-11-19T16:44:17;11.70;74.90
53286;DHT22;39171;45.550;12.074;2023-11-19T16:50:18;11.70;75.10
53286;DHT22;39171;45.550;12.074;2023-11-19T16:56:20;11.70;75.20
53286;DHT22;39171;45.550;12.074;2023-11-19T17:02:22;11.70;75.30
53286;DHT22;39171;45.550;12.074;2023-11-19T17:08:24;11.70;75.40
53286;DHT22;39171;45.550;12.074;2023-11-19T17:14:27;11.70;75.50
53286;DHT22;39171;45.550;12.074;2023-11-19T17:20:28;11.70;75.70
53286;DHT22;39171;45.550;12.074;2023-11-19T17:26:30;11.70;75.70
53286;DHT22;39171;45.550;12.074;2023-11-19T17:32:31;11.70;75.80
53286;DHT22;39171;45.550;12.074;2023-11-19T17:38:33;11.60;75.90
53286;DHT22;39171;45.550;12.074;2023-11-19T17:44:35;11.60;76.00
53286;DHT22;39171;45.550;12.074;2023-11-19T17:50:36;11.70;76.10
53286;DHT22;39171;45.550;12.074;2023-11-19T17:56:38;11.60;76.10
53286;DHT22;39171;45.550;12.074;2023-11-19T18:02:42;11.60;76.30
53286;DHT22;39171;45.550;12.074;2023-11-19T18:08:49;11.60;76.30
53286;DHT22;39171;45.550;12.074;2023-11-19T18:14:51;11.60;76.40
53286;DHT22;39171;45.550;12.074;2023-11-19T18:20:52;11.60;76.40
53286;DHT22;39171;45.550;12.074;2023-11-19T18:26:54;11.60;76.60
53286;DHT22;39171;45.550;12.074;2023-11-19T18:32:55;11.60;76.60
53286;DHT22;39171;45.550;12.074;2023-11-19T18:38:56;11.60;76.70
53286;DHT22;39171;45.550;12.074;2023-11-19T18:44:58;11.60;76.80
53286;DHT22;39171;45.550;12.074;2023-11-19T18:50:59;11.60;76.80
53286;DHT22;39171;45.550;12.074;2023-11-19T18:57:02;11.60;76.90
53286;DHT22;39171;45.550;12.074;2023-11-19T19:03:05;11.50;76.90
53286;DHT22;39171;45.550;12.074;2023-11-19T19:09:07;11.50;77.00
53286;DHT22;39171;45.550;12.074;2023-11-19T19:15:10;11.50;77.00
53286;DHT22;39171;45.550;12.074;2023-11-19T19:21:14;11.50;77.10
53286;DHT22;39171;45.550;12.074;2023-11-19T19:27:16;11.50;77.20
53286;DHT22;39171;45.550;12.074;2023-11-19T19:33:18;11.50;77.20
53286;DHT22;39171;45.550;12.074;2023-11-19T19:39:19;11.50;77.30
53286;DHT22;39171;45.550;12.074;2023-11-19T19:45:21;11.50;77.30
53286;DHT22;39171;45.550;12.074;2023-11-19T19:51:23;11.50;77.20
53286;DHT22;39171;45.550;12.074;2023-11-19T19:57:25;11.50;77.40
53286;DHT22;39171;45.550;12.074;2023-11-19T20:03:26;11.50;77.40
53286;DHT22;39171;45.550;12.074;2023-11-19T20:09:28;11.50;77.40
53286;DHT22;39171;45.550;12.074;2023-11-19T20:15:29;11.50;77.40
53286;DHT22;39171;45.550;12.074;2023-11-19T20:21:32;11.50;77.40
53286;DHT22;39171;45.550;12.074;2023-11-19T20:27:33;11.40;77.50
53286;DHT22;39171;45.550;12.074;2023-11-19T20:33:34;11.50;77.60
53286;DHT22;39171;45.550;12.074;2023-11-19T20:39:36;11.40;77.50
53286;DHT22;39171;45.550;12.074;2023-11-19T20:45:38;11.40;77.60
53286;DHT22;39171;45.550;12.074;2023-11-19T20:51:40;11.40;77.60
53286;DHT22;39171;45.550;12.074;2023-11-19T20:57:41;11.40;77.60
53286;DHT22;39171;45.550;12.074;2023-11-19T21:03:42;11.40;77.70
53286;DHT22;39171;45.550;12.074;2023-11-19T21:09:44;11.40;77.70
53286;DHT22;39171;45.550;12.074;2023-11-19T21:15:45;11.40;77.70
53286;DHT22;39171;45.550;12.074;2023-11-19T21:21:47;11.40;77.80
53286;DHT22;39171;45.550;12.074;2023-11-19T21:27:48;11.40;77.80
53286;DHT22;39171;45.550;12.074;2023-11-19T21:33:51;11.40;77.90
53286;DHT22;39171;45.550;12.074;2023-11-19T21:39:52;11.30;77.90
53286;DHT22;39171;45.550;12.074;2023-11-19T21:45:54;11.30;77.90
53286;DHT22;39171;45.550;12.074;2023-11-19T21:51:55;11.30;77.90
53286;DHT22;39171;45.550;12.074;2023-11-19T21:57:57;11.30;77.90
53286;DHT22;39171;45.550;12.074;2023-11-19T22:03:58;11.30;77.90
53286;DHT22;39171;45.550;12.074;2023-11-19T22:10:00;11.30;77.90
53286;DHT22;39171;45.550;12.074;2023-11-19T22:16:04;11.30;77.80
53286;DHT22;39171;45.550;12.074;2023-11-19T22:22:06;11.30;77.90
53286;DHT22;39171;45.550;12.074;2023-11-19T22:28:07;11.30;77.90
53286;DHT22;39171;45.550;12.074;2023-11-19T22:34:09;11.30;77.90
53286;DHT22;39171;45.550;12.074;2023-11-19T22:40:12;11.30;77.90
53286;DHT22;39171;45.550;12.074;2023-11-19T22:46:13;11.30;77.90
53286;DHT22;39171;45.550;12.074;2023-11-19T22:52:15;11.20;77.90
53286;DHT22;39171;45.550;12.074;2023-11-19T22:58:16;11.20;78.00
53286;DHT22;39171;45.550;12.074;2023-11-19T23:04:18;11.20;77.90
53286;DHT22;39171;45.550;12.074;2023-11-19T23:10:19;11.20;77.90
53286;DHT22;39171;45.550;12.074;2023-11-19T23:16:21;11.20;78.00
53286;DHT22;39171;45.550;12.074;2023-11-19T23:22:24;11.20;78.00
53286;DHT22;39171;45.550;12.074;2023-11-19T23:28:25;11.20;78.00
53286;DHT22;39171;45.550;12.074;2023-11-19T23:34:28;11.20;78.00
53286;DHT22;39171;45.550;12.074;2023-11-19T23:40:29;11.20;78.00
53286;DHT22;39171;45.550;12.074;2023-11-19T23:46:31;11.20;78.00
53286;DHT22;39171;45.550;12.074;2023-11-19T23:52:32;11.20;78.10
53286;DHT22;39171;45.550;12.074;2023-11-19T23:58:34;11.20;78.20
